Time;durP1;ratioP1;P1;durP2;ratioP2;P2;SDS_P1;SDS_P2;PMS_P1;PMS_P2;Temp;Humidity;BMP_temperature;BMP_pressure;BME280_temperature;BME280_humidity;BME280_pressure;Samples;Min_cycle;Max_cycle;Signal;HPM_P1;HPM_P2
2024/03/15 00:02:01;;;;;;;0.10;0.10;;;;;;;9.35;80.35;100662.44;15503955;28;20463;-49
2024/03/15 00:09:35;;;;;;;3.38;1.15;;;;;;;9.44;78.87;100648.63;15514961;28;20034;-53
2024/03/15 00:17:11;;;;;;;0.22;0.22;;;;;;;8.88;79.98;100646.25;15523597;28;20486;-52
2024/03/15 00:24:45;;;;;;;0.10;0.10;;;;;;;9.16;77.70;100635.41;15517983;28;20038;-50
2024/03/15 00:32:19;;;;;;;0.73;0.63;;;;;;;8.87;78.04;100635.75;15518526;28;20038;-52
2024/03/15 00:39:52;;;;;;;0.30;0.30;;;;;;;9.07;78.82;100628.59;15542005;28;20456;-50
2024/03/15 00:47:27;;;;;;;0.00;0.00;;;;;;;9.09;78.03;100621.19;15553180;28;20287;-53
2024/03/15 00:55:02;;;;;;;1.45;1.05;;;;;;;8.82;81.67;100608.78;15511476;28;20050;-50
2024/03/15 01:02:36;;;;;;;1.08;0.88;;;;;;;8.43;84.43;100596.91;15520114;28;20042;-48
2024/03/15 01:10:14;;;;;;;0.73;0.73;;;;;;;8.49;86.04;100595.31;15512735;28;20495;-49
2024/03/15 01:17:47;;;;;;;0.38;0.20;;;;;;;8.41;86.51;100588.25;15512374;28;20046;-51
2024/03/15 01:25:21;;;;;;;0.52;0.52;;;;;;;8.54;85.44;100572.28;15508065;28;20053;-47
2024/03/15 01:32:56;;;;;;;0.20;0.20;;;;;;;8.59;84.76;100566.31;15512760;28;20124;-55
2024/03/15 01:40:30;;;;;;;0.00;0.00;;;;;;;8.77;84.53;100568.41;15501791;28;20517;-53
2024/03/15 01:48:07;;;;;;;0.20;0.20;;;;;;;8.63;84.21;100564.88;15514990;28;20532;-50
2024/03/15 01:55:47;;;;;;;0.38;0.35;;;;;;;8.43;85.04;100559.44;15484875;28;20079;-49
2024/03/15 02:03:21;;;;;;;0.10;0.10;;;;;;;8.63;84.18;100557.69;15525317;28;20038;-50
2024/03/15 02:10:55;;;;;;;0.00;0.00;;;;;;;8.87;82.36;100545.59;15507277;28;20040;-52
2024/03/15 02:18:30;;;;;;;1.10;1.00;;;;;;;8.92;82.33;100553.00;15498751;28;20077;-50
2024/03/15 02:26:04;;;;;;;0.63;0.63;;;;;;;9.11;81.66;100543.34;15501053;28;20070;-52
2024/03/15 02:33:39;;;;;;;0.10;0.10;;;;;;;8.67;81.92;100494.72;15520014;28;20137;-49
2024/03/15 02:41:31;;;;;;;1.30;1.25;;;;;;;8.89;82.34;100530.13;15493971;28;20073;-49
2024/03/15 02:49:05;;;;;;;1.02;0.98;;;;;;;8.56;83.78;100540.78;15488250;28;20081;-51
2024/03/15 02:56:39;;;;;;;2.67;1.02;;;;;;;8.57;83.50;100522.88;15487108;28;20290;-49
2024/03/15 03:04:13;;;;;;;0.85;0.75;;;;;;;8.50;83.87;100535.41;15499984;28;20096;-49
2024/03/15 03:11:58;;;;;;;0.00;0.00;;;;;;;8.94;82.21;100521.50;15513610;28;20451;-47
2024/03/15 03:19:33;;;;;;;1.38;1.02;;;;;;;8.57;83.29;100510.31;15504097;28;20092;-54
2024/03/15 03:27:07;;;;;;;1.55;1.45;;;;;;;8.62;83.32;100513.19;15472980;28;20061;-49
2024/03/15 03:34:41;;;;;;;0.68;0.40;;;;;;;8.60;82.74;100496.53;15493630;28;20076;-49
2024/03/15 03:42:14;;;;;;;1.13;1.05;;;;;;;8.75;81.74;100496.34;15513443;28;20117;-53
2024/03/15 03:49:50;;;;;;;0.85;0.85;;;;;;;8.36;83.05;100494.41;15523383;28;20042;-48
2024/03/15 03:57:24;;;;;;;1.05;0.55;;;;;;;8.13;84.94;100492.88;15553341;28;20099;-50
2024/03/15 04:04:58;;;;;;;0.45;0.45;;;;;;;8.32;84.43;100483.28;15501006;28;20050;-48
2024/03/15 04:12:33;;;;;;;0.35;0.35;;;;;;;8.36;83.87;100473.88;15518507;22;20058;-50
2024/03/15 04:20:17;;;;;;;6.22;0.82;;;;;;;8.46;82.78;100478.81;15471926;28;20470;-48
2024/03/15 04:27:56;;;;;;;1.13;1.02;;;;;;;8.67;82.14;100477.81;15488373;28;20046;-49
2024/03/15 04:35:33;;;;;;;1.35;0.80;;;;;;;8.76;81.99;100476.59;15479941;28;20451;-46
2024/03/15 04:43:07;;;;;;;0.68;0.30;;;;;;;8.63;82.60;100466.72;15513992;28;20125;-48
2024/03/15 04:50:42;;;;;;;0.22;0.22;;;;;;;8.87;80.15;100467.16;15511885;28;20054;-48
2024/03/15 04:58:20;;;;;;;0.57;0.57;;;;;;;8.23;82.59;100472.97;15499903;28;20046;-47
2024/03/15 05:05:54;;;;;;;1.58;0.60;;;;;;;8.02;84.00;100472.09;15504358;28;20046;-49
2024/03/15 05:13:32;;;;;;;0.70;0.40;;;;;;;8.27;83.73;100463.53;15504525;28;20066;-49
2024/03/15 05:21:07;;;;;;;0.10;0.10;;;;;;;8.53;81.19;100473.47;15502665;28;20053;-48
2024/03/15 05:28:42;;;;;;;0.43;0.43;;;;;;;8.49;81.10;100470.41;15521771;28;20038;-53
2024/03/15 05:36:15;;;;;;;0.20;0.15;;;;;;;8.43;81.20;100468.50;15515538;28;20058;-50
2024/03/15 05:43:49;;;;;;;2.47;1.48;;;;;;;8.36;81.85;100463.16;15505267;28;20038;-47
2024/03/15 05:51:23;;;;;;;1.33;0.68;;;;;;;8.76;80.56;100468.56;15515249;28;20042;-48
2024/03/15 05:58:59;;;;;;;2.83;0.75;;;;;;;8.66;81.38;100465.47;15522883;28;20088;-48
2024/03/15 06:06:40;;;;;;;0.68;0.68;;;;;;;8.64;80.94;100471.03;15500363;28;20042;-51
2024/03/15 06:14:17;;;;;;;0.43;0.43;;;;;;;8.28;82.57;100459.81;15514427;28;20077;-51
2024/03/15 06:21:53;;;;;;;0.55;0.32;;;;;;;8.55;82.94;100458.88;15538570;28;20506;-50
2024/03/15 06:29:33;;;;;;;0.68;0.65;;;;;;;9.13;81.19;100466.28;15522203;28;20042;-49
2024/03/15 06:37:12;;;;;;;0.80;0.80;;;;;;;9.88;78.70;100472.09;15529475;28;20065;-47
2024/03/15 06:45:02;;;;;;;0.23;0.23;;;;;;;10.00;78.43;100462.34;15510540;28;20045;-48
2024/03/15 06:52:35;;;;;;;2.78;1.85;;;;;;;10.40;77.17;100462.19;15528844;28;20300;-47
2024/03/15 07:00:14;;;;;;;0.52;0.52;;;;;;;10.61;76.91;100464.53;15527428;28;20095;-51
2024/03/15 07:07:48;;;;;;;0.10;0.10;;;;;;;11.32;73.72;100470.53;15515225;28;20071;-49
2024/03/15 07:15:22;;;;;;;0.93;0.88;;;;;;;11.61;72.72;100474.38;15513592;28;20117;-51
2024/03/15 07:22:58;;;;;;;0.40;0.40;;;;;;;11.27;73.35;100465.00;15488231;28;20038;-46
2024/03/15 07:30:34;;;;;;;1.00;0.63;;;;;;;11.09;74.74;100465.78;15502054;28;20124;-48
2024/03/15 07:38:09;;;;;;;0.28;0.28;;;;;;;12.08;72.25;100467.44;15500733;28;20423;-50
2024/03/15 07:45:43;;;;;;;0.65;0.40;;;;;;;12.74;69.29;100446.84;15482425;28;20081;-51
2024/03/15 07:53:18;;;;;;;0.47;0.30;;;;;;;14.00;64.67;100456.16;15514660;28;20046;-49
2024/03/15 08:00:51;;;;;;;1.65;1.17;;;;;;;13.95;64.48;100441.72;15505814;28;20038;-49
2024/03/15 08:08:25;;;;;;;1.48;0.55;;;;;;;13.50;66.34;100443.22;15522013;28;20046;-49
2024/03/15 08:16:08;;;;;;;3.40;2.20;;;;;;;12.81;69.79;100454.78;15525032;28;20042;-49
2024/03/15 08:23:44;;;;;;;0.88;0.85;;;;;;;13.86;65.87;100444.00;15534387;28;20103;-49
2024/03/15 08:31:19;;;;;;;0.65;0.65;;;;;;;14.95;61.31;100446.50;15503119;28;20046;-47
2024/03/15 08:38:53;;;;;;;1.55;0.73;;;;;;;15.49;60.61;100443.25;15502227;28;20046;-49
2024/03/15 08:46:30;;;;;;;0.82;0.77;;;;;;;15.13;61.05;100445.44;15518547;28;20116;-49
2024/03/15 08:54:07;;;;;;;1.42;1.33;;;;;;;14.74;62.13;100458.06;15514471;28;20291;-49
2024/03/15 09:01:44;;;;;;;0.32;0.32;;;;;;;15.14;61.60;100451.66;15518300;28;20117;-46
2024/03/15 09:09:21;;;;;;;1.65;0.77;;;;;;;15.19;61.40;100455.25;15518331;28;20050;-52
2024/03/15 09:16:56;;;;;;;0.47;0.47;;;;;;;14.94;61.83;100465.69;15445090;28;20046;-51
2024/03/15 09:24:38;;;;;;;2.25;1.30;;;;;;;15.42;60.77;100470.47;15467463;28;20074;-52
2024/03/15 09:32:13;;;;;;;0.35;0.30;;;;;;;16.14;57.69;100469.53;15476839;28;20039;-48
2024/03/15 09:39:47;;;;;;;0.95;0.38;;;;;;;15.71;59.66;100463.03;15471666;28;20089;-51
2024/03/15 09:47:21;;;;;;;0.17;0.17;;;;;;;16.40;58.15;100467.91;15466173;28;20042;-49
2024/03/15 09:54:56;;;;;;;2.65;1.52;;;;;;;16.76;57.15;100450.13;15460239;28;20088;-48
2024/03/15 10:02:30;;;;;;;3.25;0.60;;;;;;;17.52;54.27;100446.28;15461681;28;20046;-48
2024/03/15 10:10:11;;;;;;;2.45;0.47;;;;;;;17.92;54.16;100442.97;15412852;28;20054;-49
2024/03/15 10:17:45;;;;;;;1.23;1.13;;;;;;;18.18;52.09;100437.63;15525538;23;20076;-50
2024/03/15 10:25:24;;;;;;;0.93;0.93;;;;;;;18.78;50.71;100434.19;15539381;28;20053;-52
2024/03/15 10:32:59;;;;;;;1.20;0.63;;;;;;;19.20;49.24;100440.41;15535452;28;20111;-53
2024/03/15 10:40:35;;;;;;;0.55;0.55;;;;;;;18.45;51.48;100424.63;15541306;28;20034;-49
2024/03/15 10:48:10;;;;;;;1.20;1.10;;;;;;;17.70;53.19;100424.13;15516047;28;20076;-52
2024/03/15 10:55:47;;;;;;;0.30;0.30;;;;;;;18.99;50.51;100434.19;15515810;28;20046;-51
2024/03/15 11:03:25;;;;;;;0.35;0.35;;;;;;;19.77;47.68;100425.56;15538442;28;20038;-52
2024/03/15 11:11:00;;;;;;;1.27;0.77;;;;;;;19.72;48.43;100429.13;15515490;28;20045;-51
2024/03/15 11:18:35;;;;;;;0.85;0.63;;;;;;;21.45;44.32;100412.56;15518295;28;20050;-49
2024/03/15 11:26:10;;;;;;;0.38;0.38;;;;;;;21.10;43.94;100418.09;15531098;28;20045;-52
2024/03/15 11:33:43;;;;;;;7.20;1.73;;;;;;;21.57;42.39;100413.00;15520147;28;20068;-51
2024/03/15 11:41:20;;;;;;;1.50;0.68;;;;;;;21.36;42.12;100405.03;15534218;28;20041;-50
2024/03/15 11:48:54;;;;;;;0.40;0.40;;;;;;;21.79;42.14;100396.06;15504633;28;20490;-52
2024/03/15 11:56:29;;;;;;;1.75;0.90;;;;;;;22.42;40.94;100385.59;15536329;28;20042;-55
2024/03/15 12:04:05;;;;;;;2.92;1.02;;;;;;;21.08;44.43;100390.31;15536733;28;20516;-52
2024/03/15 12:11:39;;;;;;;1.85;1.10;;;;;;;21.52;41.75;100389.28;15519312;28;20038;-51
2024/03/15 12:19:14;;;;;;;1.38;1.27;;;;;;;22.28;42.25;100384.72;15546173;28;20392;-50
2024/03/15 12:26:48;;;;;;;6.00;1.30;;;;;;;23.02;39.56;100384.88;15549517;28;20134;-53
2024/03/15 12:34:22;;;;;;;0.30;0.25;;;;;;;22.39;40.21;100380.72;15579456;28;20088;-56
2024/03/15 12:41:56;;;;;;;0.98;0.73;;;;;;;22.38;40.34;100376.38;15571810;28;20041;-55
2024/03/15 12:49:30;;;;;;;0.30;0.25;;;;;;;22.08;40.06;100374.88;15573173;28;20034;-56
2024/03/15 12:57:04;;;;;;;1.25;0.82;;;;;;;22.20;39.27;100379.94;15578828;28;20038;-55
2024/03/15 13:04:38;;;;;;;0.95;0.80;;;;;;;21.13;40.88;100376.59;15556398;28;20053;-52
2024/03/15 13:12:12;;;;;;;1.83;0.98;;;;;;;19.72;44.42;100380.09;15528746;28;20548;-49
2024/03/15 13:19:46;;;;;;;0.10;0.10;;;;;;;20.85;43.36;100361.06;15542828;28;20505;-48
2024/03/15 13:27:22;;;;;;;0.20;0.20;;;;;;;20.72;42.37;100364.47;15522322;28;20116;-52
2024/03/15 13:34:56;;;;;;;0.22;0.22;;;;;;;21.38;39.94;100361.88;15548225;28;20136;-50
2024/03/15 13:42:30;;;;;;;0.22;0.20;;;;;;;19.52;44.49;100369.28;15543559;28;20096;-51
2024/03/15 13:50:04;;;;;;;1.98;0.60;;;;;;;18.99;46.56;100366.19;15535456;28;20076;-53
2024/03/15 13:57:37;;;;;;;0.00;0.00;;;;;;;18.43;48.02;100366.22;15527734;28;20046;-51
2024/03/15 14:05:14;;;;;;;0.35;0.20;;;;;;;18.55;48.12;100366.72;15534761;28;20129;-49
2024/03/15 14:12:50;;;;;;;0.20;0.20;;;;;;;18.20;48.75;100375.69;15542790;28;20058;-48
2024/03/15 14:20:29;;;;;;;0.22;0.22;;;;;;;18.27;48.99;100370.81;15559040;28;20042;-53
2024/03/15 14:28:04;;;;;;;0.30;0.17;;;;;;;18.49;49.77;100375.97;15533877;28;20041;-51
2024/03/15 14:35:38;;;;;;;0.43;0.43;;;;;;;18.06;50.43;100375.41;15508256;28;20075;-50
2024/03/15 14:43:13;;;;;;;0.00;0.00;;;;;;;17.71;51.43;100374.19;15515630;28;20530;-52
2024/03/15 14:50:50;;;;;;;0.22;0.22;;;;;;;18.14;50.68;100374.88;15538399;28;20156;-52
2024/03/15 14:58:25;;;;;;;1.38;1.10;;;;;;;18.43;50.43;100371.66;15522585;28;20037;-54
2024/03/15 15:05:59;;;;;;;0.00;0.00;;;;;;;18.39;50.52;100365.94;15537317;28;20042;-51
2024/03/15 15:13:34;;;;;;;0.00;0.00;;;;;;;18.12;50.41;100328.13;15537271;28;20038;-53
2024/03/15 15:21:08;;;;;;;0.20;0.13;;;;;;;17.65;51.62;100367.09;15538243;28;20108;-54
2024/03/15 15:28:45;;;;;;;0.10;0.10;;;;;;;17.94;50.76;100370.19;15538267;28;20392;-53
2024/03/15 15:36:19;;;;;;;0.00;0.00;;;;;;;18.06;50.28;100370.78;15538637;28;20066;-50
2024/03/15 15:43:53;;;;;;;0.05;0.05;;;;;;;18.09;50.12;100369.41;15517085;28;20094;-53
2024/03/15 15:51:28;;;;;;;0.00;0.00;;;;;;;18.16;50.63;100369.16;15533626;28;20054;-51
2024/03/15 15:59:03;;;;;;;0.00;0.00;;;;;;;17.94;51.33;100372.91;15535652;28;20124;-51
2024/03/15 16:06:40;;;;;;;0.30;0.30;;;;;;;18.06;51.24;100373.50;15576827;28;20363;-51
2024/03/15 16:14:16;;;;;;;1.55;0.28;;;;;;;17.60;52.56;100376.03;15597695;28;20060;-51
2024/03/15 16:22:03;;;;;;;0.00;0.00;;;;;;;17.68;53.25;100374.72;15585132;28;20049;-48
2024/03/15 16:29:37;;;;;;;0.52;0.52;;;;;;;17.41;54.36;100379.50;15596473;28;20057;-48
2024/03/15 16:37:16;;;;;;;0.30;0.30;;;;;;;17.24;55.09;100372.34;15581826;28;20124;-49
2024/03/15 16:44:50;;;;;;;1.33;0.63;;;;;;;17.84;53.52;100381.84;15596689;28;20049;-48
2024/03/15 16:52:24;;;;;;;3.22;1.42;;;;;;;17.52;54.82;100378.44;15594198;28;20418;-48
2024/03/15 16:59:59;;;;;;;0.22;0.22;;;;;;;17.44;54.97;100387.09;15592902;28;20088;-51
2024/03/15 17:07:39;;;;;;;0.20;0.20;;;;;;;17.11;55.84;100390.97;15604932;28;20051;-52
2024/03/15 17:15:14;;;;;;;0.00;0.00;;;;;;;17.08;55.58;100382.31;15590874;28;20128;-51
2024/03/15 17:22:48;;;;;;;8.98;2.08;;;;;;;16.42;56.46;100359.31;15605908;28;20460;-55
2024/03/15 17:30:22;;;;;;;7.10;2.83;;;;;;;16.55;56.07;100397.63;15605843;28;20076;-53
2024/03/15 17:37:56;;;;;;;0.20;0.20;;;;;;;16.83;54.99;100410.06;15603428;28;20051;-53
2024/03/15 17:45:33;;;;;;;0.77;0.57;;;;;;;16.74;54.83;100414.34;15607804;28;20103;-50
2024/03/15 17:53:07;;;;;;;0.03;0.03;;;;;;;16.58;55.01;100413.34;15608248;28;20525;-50
2024/03/15 18:00:41;;;;;;;0.00;0.00;;;;;;;16.36;55.62;100412.59;15601544;28;20137;-53
2024/03/15 18:08:15;;;;;;;1.05;0.30;;;;;;;16.15;56.12;100417.00;15600372;28;20209;-56
2024/03/15 18:15:49;;;;;;;4.90;1.00;;;;;;;15.78;56.87;100428.50;15602737;28;20077;-55
2024/03/15 18:23:22;;;;;;;0.20;0.13;;;;;;;15.94;57.03;100424.06;15603012;28;20056;-53
2024/03/15 18:30:57;;;;;;;0.00;0.00;;;;;;;15.12;58.05;100332.97;15603714;28;20050;-51
2024/03/15 18:38:34;;;;;;;0.10;0.10;;;;;;;15.62;57.33;100407.72;15603123;28;20044;-51
2024/03/15 18:46:08;;;;;;;0.00;0.00;;;;;;;15.20;59.10;100419.06;15569781;28;20080;-51
2024/03/15 18:53:43;;;;;;;0.28;0.20;;;;;;;14.90;60.50;100432.09;15602962;28;20087;-53
2024/03/15 19:01:19;;;;;;;0.00;0.00;;;;;;;15.45;58.97;100439.41;15600296;28;20045;-54
2024/03/15 19:08:53;;;;;;;0.03;0.03;;;;;;;15.29;59.96;100451.88;15600088;28;20422;-52
2024/03/15 19:16:34;;;;;;;0.15;0.15;;;;;;;14.58;63.11;100458.84;15599293;28;20073;-53
2024/03/15 19:24:08;;;;;;;0.65;0.45;;;;;;;14.39;64.40;100466.31;15590800;28;20061;-55
2024/03/15 19:31:48;;;;;;;0.20;0.20;;;;;;;14.66;63.22;100459.28;15593339;28;20048;-53
2024/03/15 19:39:23;;;;;;;0.40;0.40;;;;;;;14.75;63.56;100460.50;15604707;28;20045;-52
2024/03/15 19:46:57;;;;;;;0.52;0.45;;;;;;;14.44;64.43;100461.81;15602105;28;20470;-54
2024/03/15 19:54:31;;;;;;;1.75;0.90;;;;;;;14.21;65.38;100464.63;15603174;28;20478;-53
2024/03/15 20:02:06;;;;;;;0.35;0.17;;;;;;;14.38;64.37;100465.50;15594481;28;20052;-55
2024/03/15 20:09:40;;;;;;;0.20;0.20;;;;;;;14.15;65.44;100471.81;15592389;28;20091;-56
2024/03/15 20:17:13;;;;;;;0.00;0.00;;;;;;;14.53;64.04;100483.88;15595158;28;20076;-53
2024/03/15 20:24:47;;;;;;;0.00;0.00;;;;;;;14.21;65.57;100497.84;15597845;28;20045;-53
2024/03/15 20:32:21;;;;;;;1.17;0.50;;;;;;;13.72;67.78;100496.56;15566724;28;20091;-51
2024/03/15 20:39:56;;;;;;;0.57;0.57;;;;;;;13.82;67.50;100502.16;15597019;28;20080;-52
2024/03/15 20:47:33;;;;;;;0.52;0.10;;;;;;;13.67;68.41;100499.16;15613707;28;20046;-55
2024/03/15 20:55:07;;;;;;;0.00;0.00;;;;;;;13.41;68.97;100493.19;15602245;28;20041;-54
2024/03/15 21:02:45;;;;;;;0.10;0.10;;;;;;;13.48;68.36;100495.78;15610093;28;20117;-51
2024/03/15 21:10:18;;;;;;;0.00;0.00;;;;;;;13.11;69.78;100501.34;15595317;28;20063;-54
2024/03/15 21:18:14;;;;;;;0.73;0.73;;;;;;;13.45;68.40;100501.63;15591297;28;20124;-53
2024/03/15 21:25:49;;;;;;;0.52;0.38;;;;;;;13.54;68.24;100492.13;15604980;28;20049;-53
2024/03/15 21:33:23;;;;;;;0.47;0.40;;;;;;;13.74;67.29;100495.25;15604240;28;20091;-50
2024/03/15 21:41:04;;;;;;;0.00;0.00;;;;;;;13.78;67.09;100503.69;15579705;28;20447;-51
2024/03/15 21:48:40;;;;;;;0.00;0.00;;;;;;;13.74;66.58;100497.94;15595589;28;20057;-50
2024/03/15 21:56:15;;;;;;;1.08;0.35;;;;;;;13.60;67.34;100496.56;15601194;28;20048;-51
2024/03/15 22:03:50;;;;;;;1.45;1.02;;;;;;;13.49;67.27;100502.78;15600801;28;20520;-52
2024/03/15 22:11:24;;;;;;;0.13;0.13;;;;;;;13.23;67.99;100506.75;15597784;28;20048;-52
2024/03/15 22:18:58;;;;;;;0.10;0.10;;;;;;;13.11;68.45;100504.03;15341864;22;20060;-51
2024/03/15 22:26:31;;;;;;;0.17;0.17;;;;;;;13.15;68.34;100502.53;15343028;28;20066;-53
2024/03/15 22:34:06;;;;;;;0.32;0.32;;;;;;;12.98;69.02;100501.56;15321336;28;20089;-50
2024/03/15 22:41:45;;;;;;;0.77;0.40;;;;;;;13.48;66.91;100488.50;15326477;28;20039;-51
2024/03/15 22:49:19;;;;;;;0.20;0.20;;;;;;;12.99;68.61;100490.53;15339021;28;20537;-54
2024/03/15 22:56:56;;;;;;;0.22;0.22;;;;;;;13.07;68.06;100489.41;15340712;28;20547;-50
2024/03/15 23:04:29;;;;;;;0.57;0.43;;;;;;;12.97;68.20;100494.53;15343048;28;20047;-53
2024/03/15 23:12:04;;;;;;;0.00;0.00;;;;;;;12.70;69.30;100515.66;15343617;28;20043;-54
2024/03/15 23:19:41;;;;;;;1.10;0.70;;;;;;;12.44;69.56;100509.59;15356352;28;20048;-52
2024/03/15 23:27:20;;;;;;;0.25;0.25;;;;;;;12.08;70.86;100507.81;15340630;28;20043;-55
2024/03/15 23:34:54;;;;;;;0.10;0.10;;;;;;;12.23;70.74;100502.84;15359530;28;20036;-54
2024/03/15 23:42:28;;;;;;;0.60;0.43;;;;;;;12.40;68.78;100505.75;15352604;28;20470;-49
2024/03/15 23:50:04;;;;;;;11.10;0.52;;;;;;;11.77;71.63;100505.25;15349562;28;20138;-50
2024/03/15 23:57:37;;;;;;;0.70;0.30;;;;;;;12.05;70.59;100497.47;15328917;28;20135;-52
